<?xml version="1.0" encoding="UTF-8" standalone="no" ?>
<gpx xmlns="http://www.topografix.com/GPX/1/1" xmlns:xsi="http://www.w3.org/2001/XMLSchema-instance" xsi:schemaLocation="http://www.topografix.com/GPX/1/1 http://www.topografix.com/GPX/1/1/gpx.xsd" version="1.1" creator="VisuGPX - https://www.visugpx.com">
  <metadata>
    <name>coursegoule vtt</name>
    <desc><![CDATA[on tricote avec un GPS]]></desc>
  </metadata>
  <trk>
    <name><![CDATA[5 avr. 2011 18:18:55]]></name>
    <cmt><![CDATA[5 avr. 2011 18:18:55]]></cmt>
    <trkseg>
      <trkpt lat="43.79249" lon="7.04568">
        <ele>967</ele>
        <time>2011-04-05T16:18:55Z</time>
      </trkpt>
      <trkpt lat="43.79256" lon="7.04562">
        <ele>965</ele>
        <time>2011-04-05T16:19:23Z</time>
      </trkpt>
      <trkpt lat="43.79257" lon="7.04541">
        <ele>965</ele>
        <time>2011-04-05T16:19:29Z</time>
      </trkpt>
      <trkpt lat="43.79255" lon="7.04515">
        <ele>971</ele>
        <time>2011-04-05T16:19:44Z</time>
      </trkpt>
      <trkpt lat="43.79269" lon="7.0448">
        <ele>978</ele>
        <time>2011-04-05T16:20:02Z</time>
      </trkpt>
      <trkpt lat="43.7928" lon="7.04462">
        <ele>978</ele>
        <time>2011-04-05T16:20:07Z</time>
      </trkpt>
      <trkpt lat="43.79297" lon="7.04432">
        <ele>980</ele>
        <time>2011-04-05T16:20:15Z</time>
      </trkpt>
      <trkpt lat="43.79313" lon="7.044">
        <ele>980</ele>
        <time>2011-04-05T16:20:27Z</time>
      </trkpt>
      <trkpt lat="43.7935" lon="7.04315">
        <ele>993</ele>
        <time>2011-04-05T16:20:59Z</time>
      </trkpt>
      <trkpt lat="43.79364" lon="7.0429">
        <ele>994</ele>
        <time>2011-04-05T16:21:10Z</time>
      </trkpt>
      <trkpt lat="43.79371" lon="7.04282">
        <ele>994</ele>
        <time>2011-04-05T16:21:15Z</time>
      </trkpt>
      <trkpt lat="43.79382" lon="7.04271">
        <ele>993</ele>
        <time>2011-04-05T16:21:21Z</time>
      </trkpt>
      <trkpt lat="43.7942" lon="7.04225">
        <ele>997</ele>
        <time>2011-04-05T16:21:43Z</time>
      </trkpt>
      <trkpt lat="43.7944" lon="7.04195">
        <ele>1002</ele>
        <time>2011-04-05T16:22:01Z</time>
      </trkpt>
      <trkpt lat="43.79442" lon="7.04145">
        <ele>1012</ele>
        <time>2011-04-05T16:22:21Z</time>
      </trkpt>
      <trkpt lat="43.7945" lon="7.04112">
        <ele>1011</ele>
        <time>2011-04-05T16:22:27Z</time>
      </trkpt>
      <trkpt lat="43.79462" lon="7.04085">
        <ele>1011</ele>
        <time>2011-04-05T16:22:42Z</time>
      </trkpt>
      <trkpt lat="43.7948" lon="7.04071">
        <ele>1017</ele>
        <time>2011-04-05T16:22:50Z</time>
      </trkpt>
      <trkpt lat="43.79495" lon="7.0406">
        <ele>1014</ele>
        <time>2011-04-05T16:23:03Z</time>
      </trkpt>
      <trkpt lat="43.79505" lon="7.04084">
        <ele>1013</ele>
        <time>2011-04-05T16:23:32Z</time>
      </trkpt>
      <trkpt lat="43.79528" lon="7.04128">
        <ele>1022</ele>
        <time>2011-04-05T16:23:59Z</time>
      </trkpt>
      <trkpt lat="43.79528" lon="7.04151">
        <ele>1020</ele>
        <time>2011-04-05T16:24:06Z</time>
      </trkpt>
      <trkpt lat="43.7953" lon="7.04184">
        <ele>1022</ele>
        <time>2011-04-05T16:24:18Z</time>
      </trkpt>
      <trkpt lat="43.79536" lon="7.0423">
        <ele>1011</ele>
        <time>2011-04-05T16:24:52Z</time>
      </trkpt>
      <trkpt lat="43.79528" lon="7.04251">
        <ele>1009</ele>
        <time>2011-04-05T16:25:30Z</time>
      </trkpt>
      <trkpt lat="43.79521" lon="7.04266">
        <ele>1012</ele>
        <time>2011-04-05T16:26:00Z</time>
      </trkpt>
      <trkpt lat="43.79527" lon="7.04291">
        <ele>1020</ele>
        <time>2011-04-05T16:26:48Z</time>
      </trkpt>
      <trkpt lat="43.7953" lon="7.04319">
        <ele>1040</ele>
        <time>2011-04-05T16:27:33Z</time>
      </trkpt>
      <trkpt lat="43.79529" lon="7.04357">
        <ele>1047</ele>
        <time>2011-04-05T16:28:18Z</time>
      </trkpt>
      <trkpt lat="43.79526" lon="7.04378">
        <ele>1055</ele>
        <time>2011-04-05T16:28:49Z</time>
      </trkpt>
      <trkpt lat="43.79531" lon="7.04367">
        <ele>1046</ele>
        <time>2011-04-05T16:32:43Z</time>
      </trkpt>
      <trkpt lat="43.79522" lon="7.04342">
        <ele>1043</ele>
        <time>2011-04-05T16:34:24Z</time>
      </trkpt>
      <trkpt lat="43.79511" lon="7.04316">
        <ele>1043</ele>
        <time>2011-04-05T16:35:06Z</time>
      </trkpt>
      <trkpt lat="43.79511" lon="7.04281">
        <ele>1034</ele>
        <time>2011-04-05T16:35:53Z</time>
      </trkpt>
      <trkpt lat="43.79509" lon="7.04269">
        <ele>1031</ele>
        <time>2011-04-05T16:36:23Z</time>
      </trkpt>
      <trkpt lat="43.79516" lon="7.04245">
        <ele>1026</ele>
        <time>2011-04-05T16:36:59Z</time>
      </trkpt>
      <trkpt lat="43.79524" lon="7.04226">
        <ele>1019</ele>
        <time>2011-04-05T16:37:19Z</time>
      </trkpt>
      <trkpt lat="43.79504" lon="7.04219">
        <ele>1022</ele>
        <time>2011-04-05T16:38:00Z</time>
      </trkpt>
      <trkpt lat="43.79476" lon="7.0425">
        <ele>1010</ele>
        <time>2011-04-05T16:38:30Z</time>
      </trkpt>
      <trkpt lat="43.79447" lon="7.04314">
        <ele>1006</ele>
        <time>2011-04-05T16:38:46Z</time>
      </trkpt>
      <trkpt lat="43.79437" lon="7.04338">
        <ele>1006</ele>
        <time>2011-04-05T16:38:50Z</time>
      </trkpt>
      <trkpt lat="43.79428" lon="7.0436">
        <ele>1005</ele>
        <time>2011-04-05T16:38:54Z</time>
      </trkpt>
      <trkpt lat="43.7942" lon="7.04386">
        <ele>1006</ele>
        <time>2011-04-05T16:39:00Z</time>
      </trkpt>
      <trkpt lat="43.79417" lon="7.04412">
        <ele>1006</ele>
        <time>2011-04-05T16:39:06Z</time>
      </trkpt>
      <trkpt lat="43.79414" lon="7.04434">
        <ele>1007</ele>
        <time>2011-04-05T16:39:12Z</time>
      </trkpt>
      <trkpt lat="43.79412" lon="7.04452">
        <ele>1009</ele>
        <time>2011-04-05T16:40:07Z</time>
      </trkpt>
      <trkpt lat="43.79421" lon="7.0447">
        <ele>1012</ele>
        <time>2011-04-05T16:40:36Z</time>
      </trkpt>
      <trkpt lat="43.79435" lon="7.04528">
        <ele>1022</ele>
        <time>2011-04-05T16:41:41Z</time>
      </trkpt>
      <trkpt lat="43.79446" lon="7.04503">
        <ele>1025</ele>
        <time>2011-04-05T16:42:06Z</time>
      </trkpt>
      <trkpt lat="43.79459" lon="7.04522">
        <ele>1028</ele>
        <time>2011-04-05T16:42:30Z</time>
      </trkpt>
      <trkpt lat="43.79457" lon="7.04546">
        <ele>1027</ele>
        <time>2011-04-05T16:42:43Z</time>
      </trkpt>
      <trkpt lat="43.79443" lon="7.04593">
        <ele>1034</ele>
        <time>2011-04-05T16:43:22Z</time>
      </trkpt>
      <trkpt lat="43.79437" lon="7.04621">
        <ele>1035</ele>
        <time>2011-04-05T16:43:42Z</time>
      </trkpt>
      <trkpt lat="43.7945" lon="7.04624">
        <ele>1039</ele>
        <time>2011-04-05T16:44:26Z</time>
      </trkpt>
      <trkpt lat="43.7946" lon="7.04605">
        <ele>1048</ele>
        <time>2011-04-05T16:44:49Z</time>
      </trkpt>
      <trkpt lat="43.79467" lon="7.04628">
        <ele>1052</ele>
        <time>2011-04-05T16:45:19Z</time>
      </trkpt>
      <trkpt lat="43.79478" lon="7.04633">
        <ele>1059</ele>
        <time>2011-04-05T16:46:17Z</time>
      </trkpt>
      <trkpt lat="43.79507" lon="7.04608">
        <ele>1071</ele>
        <time>2011-04-05T16:47:01Z</time>
      </trkpt>
      <trkpt lat="43.79539" lon="7.04576">
        <ele>1075</ele>
        <time>2011-04-05T16:47:43Z</time>
      </trkpt>
      <trkpt lat="43.79552" lon="7.04567">
        <ele>1079</ele>
        <time>2011-04-05T16:48:14Z</time>
      </trkpt>
      <trkpt lat="43.79556" lon="7.04589">
        <ele>1081</ele>
        <time>2011-04-05T16:48:32Z</time>
      </trkpt>
      <trkpt lat="43.7955" lon="7.04616">
        <ele>1085</ele>
        <time>2011-04-05T16:48:58Z</time>
      </trkpt>
      <trkpt lat="43.79541" lon="7.04672">
        <ele>1095</ele>
        <time>2011-04-05T16:49:50Z</time>
      </trkpt>
      <trkpt lat="43.7954" lon="7.04706">
        <ele>1104</ele>
        <time>2011-04-05T16:50:18Z</time>
      </trkpt>
      <trkpt lat="43.79541" lon="7.04731">
        <ele>1106</ele>
        <time>2011-04-05T16:50:33Z</time>
      </trkpt>
      <trkpt lat="43.79553" lon="7.04728">
        <ele>1107</ele>
        <time>2011-04-05T16:51:00Z</time>
      </trkpt>
      <trkpt lat="43.79565" lon="7.04739">
        <ele>1106</ele>
        <time>2011-04-05T16:51:42Z</time>
      </trkpt>
      <trkpt lat="43.7958" lon="7.04772">
        <ele>1103</ele>
        <time>2011-04-05T16:52:01Z</time>
      </trkpt>
      <trkpt lat="43.79612" lon="7.04828">
        <ele>1095</ele>
        <time>2011-04-05T16:52:25Z</time>
      </trkpt>
      <trkpt lat="43.79619" lon="7.04861">
        <ele>1100</ele>
        <time>2011-04-05T16:53:25Z</time>
      </trkpt>
      <trkpt lat="43.79619" lon="7.04885">
        <ele>1094</ele>
        <time>2011-04-05T16:53:44Z</time>
      </trkpt>
      <trkpt lat="43.79618" lon="7.04924">
        <ele>1101</ele>
        <time>2011-04-05T16:54:35Z</time>
      </trkpt>
      <trkpt lat="43.79611" lon="7.04948">
        <ele>1101</ele>
        <time>2011-04-05T16:54:52Z</time>
      </trkpt>
      <trkpt lat="43.79618" lon="7.04986">
        <ele>1103</ele>
        <time>2011-04-05T16:55:26Z</time>
      </trkpt>
      <trkpt lat="43.79629" lon="7.05019">
        <ele>1101</ele>
        <time>2011-04-05T16:55:58Z</time>
      </trkpt>
      <trkpt lat="43.79643" lon="7.05045">
        <ele>1118</ele>
        <time>2011-04-05T16:56:34Z</time>
      </trkpt>
      <trkpt lat="43.79674" lon="7.05049">
        <ele>1125</ele>
        <time>2011-04-05T16:57:22Z</time>
      </trkpt>
      <trkpt lat="43.79693" lon="7.05086">
        <ele>1129</ele>
        <time>2011-04-05T16:57:52Z</time>
      </trkpt>
      <trkpt lat="43.79698" lon="7.05112">
        <ele>1138</ele>
        <time>2011-04-05T16:58:20Z</time>
      </trkpt>
      <trkpt lat="43.79709" lon="7.05142">
        <ele>1154</ele>
        <time>2011-04-05T16:59:15Z</time>
      </trkpt>
      <trkpt lat="43.7972" lon="7.05139">
        <ele>1155</ele>
        <time>2011-04-05T16:59:54Z</time>
      </trkpt>
      <trkpt lat="43.79734" lon="7.0512">
        <ele>1167</ele>
        <time>2011-04-05T17:00:11Z</time>
      </trkpt>
      <trkpt lat="43.79768" lon="7.05107">
        <ele>1165</ele>
        <time>2011-04-05T17:00:46Z</time>
      </trkpt>
      <trkpt lat="43.79789" lon="7.05094">
        <ele>1176</ele>
        <time>2011-04-05T17:01:21Z</time>
      </trkpt>
      <trkpt lat="43.79802" lon="7.051">
        <ele>1185</ele>
        <time>2011-04-05T17:01:54Z</time>
      </trkpt>
      <trkpt lat="43.79794" lon="7.0512">
        <ele>1189</ele>
        <time>2011-04-05T17:02:21Z</time>
      </trkpt>
      <trkpt lat="43.79805" lon="7.05148">
        <ele>1199</ele>
        <time>2011-04-05T17:02:54Z</time>
      </trkpt>
      <trkpt lat="43.7981" lon="7.05204">
        <ele>1209</ele>
        <time>2011-04-05T17:03:39Z</time>
      </trkpt>
      <trkpt lat="43.79812" lon="7.05228">
        <ele>1213</ele>
        <time>2011-04-05T17:03:57Z</time>
      </trkpt>
      <trkpt lat="43.79814" lon="7.05256">
        <ele>1214</ele>
        <time>2011-04-05T17:04:20Z</time>
      </trkpt>
      <trkpt lat="43.79823" lon="7.05299">
        <ele>1217</ele>
        <time>2011-04-05T17:04:57Z</time>
      </trkpt>
      <trkpt lat="43.79827" lon="7.05344">
        <ele>1224</ele>
        <time>2011-04-05T17:05:36Z</time>
      </trkpt>
      <trkpt lat="43.79841" lon="7.05337">
        <ele>1243</ele>
        <time>2011-04-05T17:06:53Z</time>
      </trkpt>
      <trkpt lat="43.79844" lon="7.0536">
        <ele>1247</ele>
        <time>2011-04-05T17:07:08Z</time>
      </trkpt>
      <trkpt lat="43.79854" lon="7.05418">
        <ele>1261</ele>
        <time>2011-04-05T17:07:50Z</time>
      </trkpt>
      <trkpt lat="43.79852" lon="7.05442">
        <ele>1263</ele>
        <time>2011-04-05T17:08:10Z</time>
      </trkpt>
      <trkpt lat="43.79865" lon="7.05433">
        <ele>1271</ele>
        <time>2011-04-05T17:08:58Z</time>
      </trkpt>
      <trkpt lat="43.79881" lon="7.05412">
        <ele>1278</ele>
        <time>2011-04-05T17:09:37Z</time>
      </trkpt>
      <trkpt lat="43.79892" lon="7.05391">
        <ele>1277</ele>
        <time>2011-04-05T17:10:01Z</time>
      </trkpt>
      <trkpt lat="43.79901" lon="7.05371">
        <ele>1278</ele>
        <time>2011-04-05T17:10:18Z</time>
      </trkpt>
      <trkpt lat="43.79919" lon="7.05322">
        <ele>1290</ele>
        <time>2011-04-05T17:11:10Z</time>
      </trkpt>
      <trkpt lat="43.79932" lon="7.05275">
        <ele>1308</ele>
        <time>2011-04-05T17:11:53Z</time>
      </trkpt>
      <trkpt lat="43.79937" lon="7.0526">
        <ele>1312</ele>
        <time>2011-04-05T17:12:06Z</time>
      </trkpt>
      <trkpt lat="43.79947" lon="7.05238">
        <ele>1313</ele>
        <time>2011-04-05T17:12:26Z</time>
      </trkpt>
      <trkpt lat="43.79954" lon="7.05217">
        <ele>1309</ele>
        <time>2011-04-05T17:12:41Z</time>
      </trkpt>
      <trkpt lat="43.79969" lon="7.05225">
        <ele>1313</ele>
        <time>2011-04-05T17:13:02Z</time>
      </trkpt>
      <trkpt lat="43.79975" lon="7.05219">
        <ele>1314</ele>
        <time>2011-04-05T17:15:21Z</time>
      </trkpt>
      <trkpt lat="43.79989" lon="7.0521">
        <ele>1321</ele>
        <time>2011-04-05T17:17:50Z</time>
      </trkpt>
      <trkpt lat="43.80009" lon="7.05173">
        <ele>1321</ele>
        <time>2011-04-05T17:17:58Z</time>
      </trkpt>
      <trkpt lat="43.80032" lon="7.05129">
        <ele>1319</ele>
        <time>2011-04-05T17:18:06Z</time>
      </trkpt>
      <trkpt lat="43.80041" lon="7.05107">
        <ele>1320</ele>
        <time>2011-04-05T17:18:12Z</time>
      </trkpt>
      <trkpt lat="43.80047" lon="7.05085">
        <ele>1318</ele>
        <time>2011-04-05T17:18:18Z</time>
      </trkpt>
      <trkpt lat="43.80051" lon="7.0506">
        <ele>1319</ele>
        <time>2011-04-05T17:18:24Z</time>
      </trkpt>
      <trkpt lat="43.80053" lon="7.0504">
        <ele>1318</ele>
        <time>2011-04-05T17:18:28Z</time>
      </trkpt>
      <trkpt lat="43.80078" lon="7.04937">
        <ele>1324</ele>
        <time>2011-04-05T17:18:53Z</time>
      </trkpt>
      <trkpt lat="43.80092" lon="7.04896">
        <ele>1324</ele>
        <time>2011-04-05T17:19:03Z</time>
      </trkpt>
      <trkpt lat="43.80108" lon="7.04889">
        <ele>1325</ele>
        <time>2011-04-05T17:19:08Z</time>
      </trkpt>
      <trkpt lat="43.80131" lon="7.04891">
        <ele>1326</ele>
        <time>2011-04-05T17:19:34Z</time>
      </trkpt>
      <trkpt lat="43.8014" lon="7.04888">
        <ele>1327</ele>
        <time>2011-04-05T17:20:00Z</time>
      </trkpt>
      <trkpt lat="43.80147" lon="7.04881">
        <ele>1318</ele>
        <time>2011-04-05T17:20:36Z</time>
      </trkpt>
      <trkpt lat="43.8015" lon="7.04857">
        <ele>1319</ele>
        <time>2011-04-05T17:21:25Z</time>
      </trkpt>
      <trkpt lat="43.80156" lon="7.04833">
        <ele>1320</ele>
        <time>2011-04-05T17:21:33Z</time>
      </trkpt>
      <trkpt lat="43.80162" lon="7.04815">
        <ele>1319</ele>
        <time>2011-04-05T17:21:40Z</time>
      </trkpt>
      <trkpt lat="43.80177" lon="7.04777">
        <ele>1324</ele>
        <time>2011-04-05T17:21:56Z</time>
      </trkpt>
      <trkpt lat="43.80182" lon="7.04764">
        <ele>1324</ele>
        <time>2011-04-05T17:22:02Z</time>
      </trkpt>
      <trkpt lat="43.80185" lon="7.04715">
        <ele>1329</ele>
        <time>2011-04-05T17:22:21Z</time>
      </trkpt>
      <trkpt lat="43.8019" lon="7.04692">
        <ele>1329</ele>
        <time>2011-04-05T17:22:29Z</time>
      </trkpt>
      <trkpt lat="43.80195" lon="7.04668">
        <ele>1327</ele>
        <time>2011-04-05T17:22:36Z</time>
      </trkpt>
      <trkpt lat="43.80196" lon="7.04643">
        <ele>1327</ele>
        <time>2011-04-05T17:22:41Z</time>
      </trkpt>
      <trkpt lat="43.80201" lon="7.04594">
        <ele>1330</ele>
        <time>2011-04-05T17:22:49Z</time>
      </trkpt>
      <trkpt lat="43.802" lon="7.04566">
        <ele>1330</ele>
        <time>2011-04-05T17:22:54Z</time>
      </trkpt>
      <trkpt lat="43.80212" lon="7.04549">
        <ele>1331</ele>
        <time>2011-04-05T17:22:59Z</time>
      </trkpt>
      <trkpt lat="43.80227" lon="7.04546">
        <ele>1332</ele>
        <time>2011-04-05T17:23:04Z</time>
      </trkpt>
      <trkpt lat="43.80237" lon="7.04556">
        <ele>1333</ele>
        <time>2011-04-05T17:23:07Z</time>
      </trkpt>
      <trkpt lat="43.80247" lon="7.04564">
        <ele>1332</ele>
        <time>2011-04-05T17:23:10Z</time>
      </trkpt>
      <trkpt lat="43.80279" lon="7.04579">
        <ele>1334</ele>
        <time>2011-04-05T17:23:20Z</time>
      </trkpt>
      <trkpt lat="43.80301" lon="7.046">
        <ele>1334</ele>
        <time>2011-04-05T17:23:28Z</time>
      </trkpt>
      <trkpt lat="43.80314" lon="7.04587">
        <ele>1331</ele>
        <time>2011-04-05T17:23:42Z</time>
      </trkpt>
      <trkpt lat="43.80341" lon="7.04526">
        <ele>1325</ele>
        <time>2011-04-05T17:23:57Z</time>
      </trkpt>
      <trkpt lat="43.80361" lon="7.04454">
        <ele>1321</ele>
        <time>2011-04-05T17:24:12Z</time>
      </trkpt>
      <trkpt lat="43.80378" lon="7.04439">
        <ele>1320</ele>
        <time>2011-04-05T17:24:20Z</time>
      </trkpt>
      <trkpt lat="43.80397" lon="7.0443">
        <ele>1317</ele>
        <time>2011-04-05T17:24:35Z</time>
      </trkpt>
      <trkpt lat="43.8041" lon="7.04419">
        <ele>1316</ele>
        <time>2011-04-05T17:24:44Z</time>
      </trkpt>
      <trkpt lat="43.80425" lon="7.04386">
        <ele>1318</ele>
        <time>2011-04-05T17:25:03Z</time>
      </trkpt>
      <trkpt lat="43.80429" lon="7.04364">
        <ele>1317</ele>
        <time>2011-04-05T17:25:11Z</time>
      </trkpt>
      <trkpt lat="43.80434" lon="7.04349">
        <ele>1317</ele>
        <time>2011-04-05T17:25:14Z</time>
      </trkpt>
      <trkpt lat="43.80451" lon="7.0431">
        <ele>1315</ele>
        <time>2011-04-05T17:25:26Z</time>
      </trkpt>
      <trkpt lat="43.80456" lon="7.04294">
        <ele>1315</ele>
        <time>2011-04-05T17:25:32Z</time>
      </trkpt>
      <trkpt lat="43.80456" lon="7.04268">
        <ele>1314</ele>
        <time>2011-04-05T17:25:41Z</time>
      </trkpt>
      <trkpt lat="43.80456" lon="7.04228">
        <ele>1314</ele>
        <time>2011-04-05T17:25:52Z</time>
      </trkpt>
      <trkpt lat="43.80465" lon="7.04203">
        <ele>1313</ele>
        <time>2011-04-05T17:25:56Z</time>
      </trkpt>
      <trkpt lat="43.80487" lon="7.04165">
        <ele>1313</ele>
        <time>2011-04-05T17:26:05Z</time>
      </trkpt>
      <trkpt lat="43.805" lon="7.0415">
        <ele>1310</ele>
        <time>2011-04-05T17:26:10Z</time>
      </trkpt>
      <trkpt lat="43.80518" lon="7.04117">
        <ele>1310</ele>
        <time>2011-04-05T17:26:21Z</time>
      </trkpt>
      <trkpt lat="43.80524" lon="7.04096">
        <ele>1311</ele>
        <time>2011-04-05T17:26:26Z</time>
      </trkpt>
      <trkpt lat="43.80558" lon="7.04055">
        <ele>1312</ele>
        <time>2011-04-05T17:26:37Z</time>
      </trkpt>
      <trkpt lat="43.8063" lon="7.03942">
        <ele>1298</ele>
        <time>2011-04-05T17:27:10Z</time>
      </trkpt>
      <trkpt lat="43.80638" lon="7.03937">
        <ele>1286</ele>
        <time>2011-04-05T17:27:49Z</time>
      </trkpt>
      <trkpt lat="43.80655" lon="7.03941">
        <ele>1287</ele>
        <time>2011-04-05T17:28:12Z</time>
      </trkpt>
      <trkpt lat="43.80687" lon="7.03949">
        <ele>1287</ele>
        <time>2011-04-05T17:28:24Z</time>
      </trkpt>
      <trkpt lat="43.80704" lon="7.03939">
        <ele>1288</ele>
        <time>2011-04-05T17:28:37Z</time>
      </trkpt>
      <trkpt lat="43.80735" lon="7.03919">
        <ele>1288</ele>
        <time>2011-04-05T17:28:46Z</time>
      </trkpt>
      <trkpt lat="43.8075" lon="7.03915">
        <ele>1286</ele>
        <time>2011-04-05T17:28:52Z</time>
      </trkpt>
      <trkpt lat="43.80769" lon="7.03895">
        <ele>1286</ele>
        <time>2011-04-05T17:29:02Z</time>
      </trkpt>
      <trkpt lat="43.80783" lon="7.03882">
        <ele>1285</ele>
        <time>2011-04-05T17:29:06Z</time>
      </trkpt>
      <trkpt lat="43.808" lon="7.03879">
        <ele>1284</ele>
        <time>2011-04-05T17:29:10Z</time>
      </trkpt>
      <trkpt lat="43.80816" lon="7.03883">
        <ele>1283</ele>
        <time>2011-04-05T17:29:14Z</time>
      </trkpt>
      <trkpt lat="43.80831" lon="7.03877">
        <ele>1283</ele>
        <time>2011-04-05T17:29:19Z</time>
      </trkpt>
      <trkpt lat="43.80839" lon="7.03863">
        <ele>1283</ele>
        <time>2011-04-05T17:29:25Z</time>
      </trkpt>
      <trkpt lat="43.8087" lon="7.03791">
        <ele>1283</ele>
        <time>2011-04-05T17:29:45Z</time>
      </trkpt>
      <trkpt lat="43.80953" lon="7.03625">
        <ele>1271</ele>
        <time>2011-04-05T17:30:15Z</time>
      </trkpt>
      <trkpt lat="43.80992" lon="7.03554">
        <ele>1254</ele>
        <time>2011-04-05T17:30:26Z</time>
      </trkpt>
      <trkpt lat="43.8099" lon="7.03513">
        <ele>1245</ele>
        <time>2011-04-05T17:30:32Z</time>
      </trkpt>
      <trkpt lat="43.81001" lon="7.03494">
        <ele>1238</ele>
        <time>2011-04-05T17:30:38Z</time>
      </trkpt>
      <trkpt lat="43.8102" lon="7.03488">
        <ele>1233</ele>
        <time>2011-04-05T17:30:43Z</time>
      </trkpt>
      <trkpt lat="43.81086" lon="7.03428">
        <ele>1225</ele>
        <time>2011-04-05T17:30:59Z</time>
      </trkpt>
      <trkpt lat="43.81182" lon="7.03258">
        <ele>1218</ele>
        <time>2011-04-05T17:31:29Z</time>
      </trkpt>
      <trkpt lat="43.81187" lon="7.03234">
        <ele>1217</ele>
        <time>2011-04-05T17:31:32Z</time>
      </trkpt>
      <trkpt lat="43.812" lon="7.03214">
        <ele>1216</ele>
        <time>2011-04-05T17:31:38Z</time>
      </trkpt>
      <trkpt lat="43.81215" lon="7.0323">
        <ele>1212</ele>
        <time>2011-04-05T17:31:43Z</time>
      </trkpt>
      <trkpt lat="43.81247" lon="7.03244">
        <ele>1202</ele>
        <time>2011-04-05T17:31:59Z</time>
      </trkpt>
      <trkpt lat="43.81303" lon="7.03238">
        <ele>1195</ele>
        <time>2011-04-05T17:32:08Z</time>
      </trkpt>
      <trkpt lat="43.81407" lon="7.03213">
        <ele>1183</ele>
        <time>2011-04-05T17:32:24Z</time>
      </trkpt>
      <trkpt lat="43.81489" lon="7.03114">
        <ele>1173</ele>
        <time>2011-04-05T17:32:44Z</time>
      </trkpt>
      <trkpt lat="43.81497" lon="7.03136">
        <ele>1168</ele>
        <time>2011-04-05T17:32:53Z</time>
      </trkpt>
      <trkpt lat="43.81492" lon="7.03164">
        <ele>1156</ele>
        <time>2011-04-05T17:33:30Z</time>
      </trkpt>
      <trkpt lat="43.81499" lon="7.03187">
        <ele>1154</ele>
        <time>2011-04-05T17:34:03Z</time>
      </trkpt>
      <trkpt lat="43.81512" lon="7.03205">
        <ele>1154</ele>
        <time>2011-04-05T17:34:26Z</time>
      </trkpt>
      <trkpt lat="43.81528" lon="7.0322">
        <ele>1159</ele>
        <time>2011-04-05T17:34:50Z</time>
      </trkpt>
      <trkpt lat="43.81542" lon="7.03236">
        <ele>1159</ele>
        <time>2011-04-05T17:35:10Z</time>
      </trkpt>
      <trkpt lat="43.81566" lon="7.0327">
        <ele>1165</ele>
        <time>2011-04-05T17:35:51Z</time>
      </trkpt>
      <trkpt lat="43.81593" lon="7.03326">
        <ele>1167</ele>
        <time>2011-04-05T17:36:27Z</time>
      </trkpt>
      <trkpt lat="43.81593" lon="7.03349">
        <ele>1169</ele>
        <time>2011-04-05T17:36:34Z</time>
      </trkpt>
      <trkpt lat="43.8159" lon="7.03373">
        <ele>1171</ele>
        <time>2011-04-05T17:36:43Z</time>
      </trkpt>
      <trkpt lat="43.81587" lon="7.03397">
        <ele>1171</ele>
        <time>2011-04-05T17:36:51Z</time>
      </trkpt>
      <trkpt lat="43.81585" lon="7.03409">
        <ele>1172</ele>
        <time>2011-04-05T17:36:55Z</time>
      </trkpt>
      <trkpt lat="43.81593" lon="7.03428">
        <ele>1175</ele>
        <time>2011-04-05T17:37:08Z</time>
      </trkpt>
      <trkpt lat="43.81602" lon="7.03427">
        <ele>1177</ele>
        <time>2011-04-05T17:37:14Z</time>
      </trkpt>
      <trkpt lat="43.81623" lon="7.03427">
        <ele>1180</ele>
        <time>2011-04-05T17:37:29Z</time>
      </trkpt>
      <trkpt lat="43.81645" lon="7.03456">
        <ele>1187</ele>
        <time>2011-04-05T17:37:49Z</time>
      </trkpt>
      <trkpt lat="43.81679" lon="7.03514">
        <ele>1191</ele>
        <time>2011-04-05T17:38:13Z</time>
      </trkpt>
      <trkpt lat="43.8169" lon="7.03534">
        <ele>1191</ele>
        <time>2011-04-05T17:38:19Z</time>
      </trkpt>
      <trkpt lat="43.81701" lon="7.0355">
        <ele>1192</ele>
        <time>2011-04-05T17:38:24Z</time>
      </trkpt>
      <trkpt lat="43.8172" lon="7.03574">
        <ele>1192</ele>
        <time>2011-04-05T17:38:33Z</time>
      </trkpt>
      <trkpt lat="43.81728" lon="7.03598">
        <ele>1195</ele>
        <time>2011-04-05T17:38:41Z</time>
      </trkpt>
      <trkpt lat="43.81721" lon="7.03619">
        <ele>1195</ele>
        <time>2011-04-05T17:38:48Z</time>
      </trkpt>
      <trkpt lat="43.8168" lon="7.03698">
        <ele>1200</ele>
        <time>2011-04-05T17:39:19Z</time>
      </trkpt>
      <trkpt lat="43.81678" lon="7.03714">
        <ele>1200</ele>
        <time>2011-04-05T17:39:24Z</time>
      </trkpt>
      <trkpt lat="43.81677" lon="7.03727">
        <ele>1201</ele>
        <time>2011-04-05T17:39:28Z</time>
      </trkpt>
      <trkpt lat="43.81678" lon="7.03741">
        <ele>1201</ele>
        <time>2011-04-05T17:39:33Z</time>
      </trkpt>
      <trkpt lat="43.81683" lon="7.03754">
        <ele>1203</ele>
        <time>2011-04-05T17:39:39Z</time>
      </trkpt>
      <trkpt lat="43.81687" lon="7.03768">
        <ele>1203</ele>
        <time>2011-04-05T17:39:53Z</time>
      </trkpt>
      <trkpt lat="43.81694" lon="7.03772">
        <ele>1204</ele>
        <time>2011-04-05T17:40:53Z</time>
      </trkpt>
      <trkpt lat="43.81719" lon="7.0377">
        <ele>1210</ele>
        <time>2011-04-05T17:41:09Z</time>
      </trkpt>
      <trkpt lat="43.81727" lon="7.03775">
        <ele>1210</ele>
        <time>2011-04-05T17:41:15Z</time>
      </trkpt>
      <trkpt lat="43.81742" lon="7.03777">
        <ele>1214</ele>
        <time>2011-04-05T17:41:28Z</time>
      </trkpt>
      <trkpt lat="43.8175" lon="7.03784">
        <ele>1215</ele>
        <time>2011-04-05T17:41:36Z</time>
      </trkpt>
      <trkpt lat="43.81787" lon="7.03855">
        <ele>1228</ele>
        <time>2011-04-05T17:42:12Z</time>
      </trkpt>
      <trkpt lat="43.81835" lon="7.03898">
        <ele>1234</ele>
        <time>2011-04-05T17:42:40Z</time>
      </trkpt>
      <trkpt lat="43.81862" lon="7.03911">
        <ele>1234</ele>
        <time>2011-04-05T17:42:54Z</time>
      </trkpt>
      <trkpt lat="43.81871" lon="7.03927">
        <ele>1236</ele>
        <time>2011-04-05T17:43:03Z</time>
      </trkpt>
      <trkpt lat="43.8187" lon="7.03955">
        <ele>1238</ele>
        <time>2011-04-05T17:43:13Z</time>
      </trkpt>
      <trkpt lat="43.81865" lon="7.04001">
        <ele>1238</ele>
        <time>2011-04-05T17:43:29Z</time>
      </trkpt>
      <trkpt lat="43.81861" lon="7.0402">
        <ele>1239</ele>
        <time>2011-04-05T17:43:36Z</time>
      </trkpt>
      <trkpt lat="43.81875" lon="7.04033">
        <ele>1243</ele>
        <time>2011-04-05T17:43:46Z</time>
      </trkpt>
      <trkpt lat="43.81887" lon="7.04032">
        <ele>1245</ele>
        <time>2011-04-05T17:43:53Z</time>
      </trkpt>
      <trkpt lat="43.81907" lon="7.04025">
        <ele>1249</ele>
        <time>2011-04-05T17:44:06Z</time>
      </trkpt>
      <trkpt lat="43.81915" lon="7.04029">
        <ele>1252</ele>
        <time>2011-04-05T17:44:11Z</time>
      </trkpt>
      <trkpt lat="43.8193" lon="7.04044">
        <ele>1255</ele>
        <time>2011-04-05T17:44:22Z</time>
      </trkpt>
      <trkpt lat="43.81949" lon="7.04046">
        <ele>1258</ele>
        <time>2011-04-05T17:44:34Z</time>
      </trkpt>
      <trkpt lat="43.81957" lon="7.04047">
        <ele>1258</ele>
        <time>2011-04-05T17:44:40Z</time>
      </trkpt>
      <trkpt lat="43.8198" lon="7.04057">
        <ele>1261</ele>
        <time>2011-04-05T17:44:57Z</time>
      </trkpt>
      <trkpt lat="43.81987" lon="7.04067">
        <ele>1263</ele>
        <time>2011-04-05T17:45:03Z</time>
      </trkpt>
      <trkpt lat="43.82029" lon="7.04162">
        <ele>1274</ele>
        <time>2011-04-05T17:45:40Z</time>
      </trkpt>
      <trkpt lat="43.82037" lon="7.04182">
        <ele>1276</ele>
        <time>2011-04-05T17:45:46Z</time>
      </trkpt>
      <trkpt lat="43.82051" lon="7.04192">
        <ele>1277</ele>
        <time>2011-04-05T17:45:53Z</time>
      </trkpt>
      <trkpt lat="43.82063" lon="7.04203">
        <ele>1277</ele>
        <time>2011-04-05T17:45:59Z</time>
      </trkpt>
      <trkpt lat="43.82095" lon="7.04264">
        <ele>1280</ele>
        <time>2011-04-05T17:46:16Z</time>
      </trkpt>
      <trkpt lat="43.82099" lon="7.04286">
        <ele>1282</ele>
        <time>2011-04-05T17:46:23Z</time>
      </trkpt>
      <trkpt lat="43.82107" lon="7.04318">
        <ele>1282</ele>
        <time>2011-04-05T17:46:29Z</time>
      </trkpt>
      <trkpt lat="43.82119" lon="7.04332">
        <ele>1283</ele>
        <time>2011-04-05T17:46:33Z</time>
      </trkpt>
      <trkpt lat="43.8214" lon="7.04371">
        <ele>1286</ele>
        <time>2011-04-05T17:46:42Z</time>
      </trkpt>
      <trkpt lat="43.82172" lon="7.04389">
        <ele>1283</ele>
        <time>2011-04-05T17:46:50Z</time>
      </trkpt>
      <trkpt lat="43.82188" lon="7.04397">
        <ele>1281</ele>
        <time>2011-04-05T17:46:56Z</time>
      </trkpt>
      <trkpt lat="43.82228" lon="7.04457">
        <ele>1291</ele>
        <time>2011-04-05T17:47:32Z</time>
      </trkpt>
      <trkpt lat="43.82246" lon="7.04474">
        <ele>1294</ele>
        <time>2011-04-05T17:47:44Z</time>
      </trkpt>
      <trkpt lat="43.82269" lon="7.04477">
        <ele>1292</ele>
        <time>2011-04-05T17:47:54Z</time>
      </trkpt>
      <trkpt lat="43.82286" lon="7.04481">
        <ele>1292</ele>
        <time>2011-04-05T17:47:59Z</time>
      </trkpt>
      <trkpt lat="43.82307" lon="7.04494">
        <ele>1293</ele>
        <time>2011-04-05T17:48:06Z</time>
      </trkpt>
      <trkpt lat="43.82324" lon="7.045">
        <ele>1296</ele>
        <time>2011-04-05T17:48:12Z</time>
      </trkpt>
      <trkpt lat="43.82341" lon="7.04504">
        <ele>1297</ele>
        <time>2011-04-05T17:48:18Z</time>
      </trkpt>
      <trkpt lat="43.82356" lon="7.04514">
        <ele>1297</ele>
        <time>2011-04-05T17:48:24Z</time>
      </trkpt>
      <trkpt lat="43.82368" lon="7.0453">
        <ele>1291</ele>
        <time>2011-04-05T17:48:37Z</time>
      </trkpt>
      <trkpt lat="43.82378" lon="7.04552">
        <ele>1281</ele>
        <time>2011-04-05T17:49:03Z</time>
      </trkpt>
      <trkpt lat="43.82382" lon="7.04541">
        <ele>1281</ele>
        <time>2011-04-05T17:49:58Z</time>
      </trkpt>
      <trkpt lat="43.82398" lon="7.04536">
        <ele>1285</ele>
        <time>2011-04-05T17:50:06Z</time>
      </trkpt>
      <trkpt lat="43.82452" lon="7.04524">
        <ele>1295</ele>
        <time>2011-04-05T17:50:48Z</time>
      </trkpt>
      <trkpt lat="43.825" lon="7.04519">
        <ele>1303</ele>
        <time>2011-04-05T17:51:24Z</time>
      </trkpt>
      <trkpt lat="43.82516" lon="7.04521">
        <ele>1308</ele>
        <time>2011-04-05T17:51:35Z</time>
      </trkpt>
      <trkpt lat="43.82534" lon="7.0452">
        <ele>1308</ele>
        <time>2011-04-05T17:51:45Z</time>
      </trkpt>
      <trkpt lat="43.82568" lon="7.04522">
        <ele>1311</ele>
        <time>2011-04-05T17:51:52Z</time>
      </trkpt>
      <trkpt lat="43.82585" lon="7.04526">
        <ele>1310</ele>
        <time>2011-04-05T17:51:55Z</time>
      </trkpt>
      <trkpt lat="43.82607" lon="7.04533">
        <ele>1310</ele>
        <time>2011-04-05T17:51:59Z</time>
      </trkpt>
      <trkpt lat="43.82623" lon="7.04542">
        <ele>1309</ele>
        <time>2011-04-05T17:52:02Z</time>
      </trkpt>
      <trkpt lat="43.82644" lon="7.04553">
        <ele>1310</ele>
        <time>2011-04-05T17:52:06Z</time>
      </trkpt>
      <trkpt lat="43.82663" lon="7.04567">
        <ele>1309</ele>
        <time>2011-04-05T17:52:11Z</time>
      </trkpt>
      <trkpt lat="43.82669" lon="7.04603">
        <ele>1305</ele>
        <time>2011-04-05T17:52:23Z</time>
      </trkpt>
      <trkpt lat="43.8267" lon="7.04631">
        <ele>1300</ele>
        <time>2011-04-05T17:52:33Z</time>
      </trkpt>
      <trkpt lat="43.82682" lon="7.04649">
        <ele>1301</ele>
        <time>2011-04-05T17:52:42Z</time>
      </trkpt>
      <trkpt lat="43.82695" lon="7.04667">
        <ele>1302</ele>
        <time>2011-04-05T17:52:50Z</time>
      </trkpt>
      <trkpt lat="43.827" lon="7.04699">
        <ele>1301</ele>
        <time>2011-04-05T17:53:01Z</time>
      </trkpt>
      <trkpt lat="43.82708" lon="7.0473">
        <ele>1303</ele>
        <time>2011-04-05T17:53:10Z</time>
      </trkpt>
      <trkpt lat="43.82719" lon="7.04753">
        <ele>1303</ele>
        <time>2011-04-05T17:53:27Z</time>
      </trkpt>
      <trkpt lat="43.82732" lon="7.04813">
        <ele>1303</ele>
        <time>2011-04-05T17:53:45Z</time>
      </trkpt>
      <trkpt lat="43.82736" lon="7.04841">
        <ele>1302</ele>
        <time>2011-04-05T17:53:56Z</time>
      </trkpt>
      <trkpt lat="43.82736" lon="7.04869">
        <ele>1303</ele>
        <time>2011-04-05T17:54:04Z</time>
      </trkpt>
      <trkpt lat="43.82734" lon="7.04889">
        <ele>1303</ele>
        <time>2011-04-05T17:54:10Z</time>
      </trkpt>
      <trkpt lat="43.82729" lon="7.04913">
        <ele>1301</ele>
        <time>2011-04-05T17:54:23Z</time>
      </trkpt>
      <trkpt lat="43.82713" lon="7.04975">
        <ele>1295</ele>
        <time>2011-04-05T17:55:17Z</time>
      </trkpt>
      <trkpt lat="43.82664" lon="7.0509">
        <ele>1286</ele>
        <time>2011-04-05T17:55:44Z</time>
      </trkpt>
      <trkpt lat="43.82654" lon="7.05131">
        <ele>1288</ele>
        <time>2011-04-05T17:55:55Z</time>
      </trkpt>
      <trkpt lat="43.82656" lon="7.05154">
        <ele>1288</ele>
        <time>2011-04-05T17:56:00Z</time>
      </trkpt>
      <trkpt lat="43.82661" lon="7.05186">
        <ele>1286</ele>
        <time>2011-04-05T17:56:08Z</time>
      </trkpt>
      <trkpt lat="43.82676" lon="7.05246">
        <ele>1279</ele>
        <time>2011-04-05T17:56:24Z</time>
      </trkpt>
      <trkpt lat="43.82677" lon="7.05271">
        <ele>1278</ele>
        <time>2011-04-05T17:56:32Z</time>
      </trkpt>
      <trkpt lat="43.82687" lon="7.053">
        <ele>1278</ele>
        <time>2011-04-05T17:56:51Z</time>
      </trkpt>
      <trkpt lat="43.82688" lon="7.05339">
        <ele>1275</ele>
        <time>2011-04-05T17:57:11Z</time>
      </trkpt>
      <trkpt lat="43.82679" lon="7.05404">
        <ele>1270</ele>
        <time>2011-04-05T17:57:32Z</time>
      </trkpt>
      <trkpt lat="43.82668" lon="7.05466">
        <ele>1267</ele>
        <time>2011-04-05T17:57:49Z</time>
      </trkpt>
      <trkpt lat="43.82641" lon="7.05532">
        <ele>1268</ele>
        <time>2011-04-05T17:58:30Z</time>
      </trkpt>
      <trkpt lat="43.82634" lon="7.0556">
        <ele>1270</ele>
        <time>2011-04-05T17:58:34Z</time>
      </trkpt>
      <trkpt lat="43.82614" lon="7.05616">
        <ele>1271</ele>
        <time>2011-04-05T17:58:44Z</time>
      </trkpt>
      <trkpt lat="43.82604" lon="7.0564">
        <ele>1267</ele>
        <time>2011-04-05T17:58:49Z</time>
      </trkpt>
      <trkpt lat="43.82573" lon="7.05654">
        <ele>1259</ele>
        <time>2011-04-05T17:58:59Z</time>
      </trkpt>
      <trkpt lat="43.82535" lon="7.05696">
        <ele>1247</ele>
        <time>2011-04-05T17:59:18Z</time>
      </trkpt>
      <trkpt lat="43.8252" lon="7.05688">
        <ele>1244</ele>
        <time>2011-04-05T17:59:24Z</time>
      </trkpt>
      <trkpt lat="43.82505" lon="7.05687">
        <ele>1247</ele>
        <time>2011-04-05T17:59:34Z</time>
      </trkpt>
      <trkpt lat="43.82446" lon="7.05691">
        <ele>1223</ele>
        <time>2011-04-05T18:01:07Z</time>
      </trkpt>
      <trkpt lat="43.8246" lon="7.05702">
        <ele>1213</ele>
        <time>2011-04-05T18:02:23Z</time>
      </trkpt>
      <trkpt lat="43.82469" lon="7.05708">
        <ele>1219</ele>
        <time>2011-04-05T18:02:50Z</time>
      </trkpt>
      <trkpt lat="43.82483" lon="7.05719">
        <ele>1221</ele>
        <time>2011-04-05T18:03:08Z</time>
      </trkpt>
      <trkpt lat="43.82491" lon="7.05716">
        <ele>1219</ele>
        <time>2011-04-05T18:04:05Z</time>
      </trkpt>
      <trkpt lat="43.82503" lon="7.057">
        <ele>1224</ele>
        <time>2011-04-05T18:04:29Z</time>
      </trkpt>
      <trkpt lat="43.82502" lon="7.05682">
        <ele>1226</ele>
        <time>2011-04-05T18:05:35Z</time>
      </trkpt>
      <trkpt lat="43.82517" lon="7.05686">
        <ele>1228</ele>
        <time>2011-04-05T18:06:10Z</time>
      </trkpt>
      <trkpt lat="43.82527" lon="7.05698">
        <ele>1227</ele>
        <time>2011-04-05T18:06:20Z</time>
      </trkpt>
      <trkpt lat="43.82534" lon="7.05718">
        <ele>1228</ele>
        <time>2011-04-05T18:06:29Z</time>
      </trkpt>
      <trkpt lat="43.82539" lon="7.05741">
        <ele>1227</ele>
        <time>2011-04-05T18:06:33Z</time>
      </trkpt>
      <trkpt lat="43.82545" lon="7.05762">
        <ele>1227</ele>
        <time>2011-04-05T18:06:36Z</time>
      </trkpt>
      <trkpt lat="43.8256" lon="7.058">
        <ele>1224</ele>
        <time>2011-04-05T18:06:43Z</time>
      </trkpt>
      <trkpt lat="43.82567" lon="7.05824">
        <ele>1225</ele>
        <time>2011-04-05T18:06:47Z</time>
      </trkpt>
      <trkpt lat="43.82571" lon="7.05853">
        <ele>1224</ele>
        <time>2011-04-05T18:06:51Z</time>
      </trkpt>
      <trkpt lat="43.82574" lon="7.05913">
        <ele>1222</ele>
        <time>2011-04-05T18:07:01Z</time>
      </trkpt>
      <trkpt lat="43.82586" lon="7.05961">
        <ele>1217</ele>
        <time>2011-04-05T18:07:11Z</time>
      </trkpt>
      <trkpt lat="43.82591" lon="7.05983">
        <ele>1217</ele>
        <time>2011-04-05T18:07:16Z</time>
      </trkpt>
      <trkpt lat="43.82605" lon="7.05999">
        <ele>1216</ele>
        <time>2011-04-05T18:07:22Z</time>
      </trkpt>
      <trkpt lat="43.8261" lon="7.0601">
        <ele>1217</ele>
        <time>2011-04-05T18:07:25Z</time>
      </trkpt>
      <trkpt lat="43.82607" lon="7.06034">
        <ele>1215</ele>
        <time>2011-04-05T18:07:32Z</time>
      </trkpt>
      <trkpt lat="43.82606" lon="7.06057">
        <ele>1212</ele>
        <time>2011-04-05T18:07:39Z</time>
      </trkpt>
      <trkpt lat="43.82607" lon="7.06082">
        <ele>1211</ele>
        <time>2011-04-05T18:07:45Z</time>
      </trkpt>
      <trkpt lat="43.8261" lon="7.06089">
        <ele>1208</ele>
        <time>2011-04-05T18:08:48Z</time>
      </trkpt>
      <trkpt lat="43.82627" lon="7.06092">
        <ele>1207</ele>
        <time>2011-04-05T18:09:22Z</time>
      </trkpt>
      <trkpt lat="43.82648" lon="7.06083">
        <ele>1201</ele>
        <time>2011-04-05T18:10:17Z</time>
      </trkpt>
      <trkpt lat="43.82652" lon="7.06088">
        <ele>1203</ele>
        <time>2011-04-05T18:10:40Z</time>
      </trkpt>
      <trkpt lat="43.82661" lon="7.06114">
        <ele>1206</ele>
        <time>2011-04-05T18:11:14Z</time>
      </trkpt>
      <trkpt lat="43.82672" lon="7.06173">
        <ele>1193</ele>
        <time>2011-04-05T18:12:27Z</time>
      </trkpt>
      <trkpt lat="43.82674" lon="7.06186">
        <ele>1189</ele>
        <time>2011-04-05T18:12:55Z</time>
      </trkpt>
      <trkpt lat="43.8267" lon="7.06226">
        <ele>1182</ele>
        <time>2011-04-05T18:13:46Z</time>
      </trkpt>
      <trkpt lat="43.82656" lon="7.06242">
        <ele>1181</ele>
        <time>2011-04-05T18:14:01Z</time>
      </trkpt>
      <trkpt lat="43.82646" lon="7.06261">
        <ele>1177</ele>
        <time>2011-04-05T18:14:12Z</time>
      </trkpt>
      <trkpt lat="43.82627" lon="7.06263">
        <ele>1177</ele>
        <time>2011-04-05T18:14:21Z</time>
      </trkpt>
      <trkpt lat="43.82611" lon="7.06266">
        <ele>1179</ele>
        <time>2011-04-05T18:14:35Z</time>
      </trkpt>
      <trkpt lat="43.82604" lon="7.0626">
        <ele>1179</ele>
        <time>2011-04-05T18:14:53Z</time>
      </trkpt>
      <trkpt lat="43.8259" lon="7.0627">
        <ele>1180</ele>
        <time>2011-04-05T18:16:29Z</time>
      </trkpt>
      <trkpt lat="43.82538" lon="7.06326">
        <ele>1187</ele>
        <time>2011-04-05T18:17:18Z</time>
      </trkpt>
      <trkpt lat="43.82534" lon="7.06322">
        <ele>1171</ele>
        <time>2011-04-05T18:18:47Z</time>
      </trkpt>
      <trkpt lat="43.82525" lon="7.06342">
        <ele>1177</ele>
        <time>2011-04-05T18:19:49Z</time>
      </trkpt>
      <trkpt lat="43.82517" lon="7.06368">
        <ele>1178</ele>
        <time>2011-04-05T18:19:52Z</time>
      </trkpt>
      <trkpt lat="43.82508" lon="7.06391">
        <ele>1178</ele>
        <time>2011-04-05T18:19:55Z</time>
      </trkpt>
      <trkpt lat="43.82493" lon="7.064">
        <ele>1177</ele>
        <time>2011-04-05T18:19:57Z</time>
      </trkpt>
      <trkpt lat="43.8247" lon="7.06421">
        <ele>1177</ele>
        <time>2011-04-05T18:20:01Z</time>
      </trkpt>
      <trkpt lat="43.82437" lon="7.06465">
        <ele>1178</ele>
        <time>2011-04-05T18:20:08Z</time>
      </trkpt>
      <trkpt lat="43.82421" lon="7.06456">
        <ele>1178</ele>
        <time>2011-04-05T18:20:14Z</time>
      </trkpt>
      <trkpt lat="43.82405" lon="7.06403">
        <ele>1175</ele>
        <time>2011-04-05T18:20:21Z</time>
      </trkpt>
      <trkpt lat="43.82386" lon="7.06402">
        <ele>1172</ele>
        <time>2011-04-05T18:20:31Z</time>
      </trkpt>
      <trkpt lat="43.82334" lon="7.06374">
        <ele>1165</ele>
        <time>2011-04-05T18:20:43Z</time>
      </trkpt>
      <trkpt lat="43.82286" lon="7.06369">
        <ele>1163</ele>
        <time>2011-04-05T18:20:51Z</time>
      </trkpt>
      <trkpt lat="43.82141" lon="7.06378">
        <ele>1158</ele>
        <time>2011-04-05T18:21:11Z</time>
      </trkpt>
      <trkpt lat="43.82096" lon="7.06358">
        <ele>1154</ele>
        <time>2011-04-05T18:21:21Z</time>
      </trkpt>
      <trkpt lat="43.82069" lon="7.06363">
        <ele>1149</ele>
        <time>2011-04-05T18:21:26Z</time>
      </trkpt>
      <trkpt lat="43.82012" lon="7.06381">
        <ele>1142</ele>
        <time>2011-04-05T18:21:37Z</time>
      </trkpt>
      <trkpt lat="43.81978" lon="7.06337">
        <ele>1138</ele>
        <time>2011-04-05T18:21:43Z</time>
      </trkpt>
      <trkpt lat="43.8193" lon="7.06254">
        <ele>1126</ele>
        <time>2011-04-05T18:22:03Z</time>
      </trkpt>
      <trkpt lat="43.81936" lon="7.06273">
        <ele>1097</ele>
        <time>2011-04-05T18:22:54Z</time>
      </trkpt>
      <trkpt lat="43.8194" lon="7.06384">
        <ele>1111</ele>
        <time>2011-04-05T18:23:08Z</time>
      </trkpt>
      <trkpt lat="43.81933" lon="7.06449">
        <ele>1114</ele>
        <time>2011-04-05T18:23:14Z</time>
      </trkpt>
      <trkpt lat="43.81873" lon="7.06774">
        <ele>1078</ele>
        <time>2011-04-05T18:23:39Z</time>
      </trkpt>
      <trkpt lat="43.81848" lon="7.06875">
        <ele>1056</ele>
        <time>2011-04-05T18:23:48Z</time>
      </trkpt>
      <trkpt lat="43.81804" lon="7.06949">
        <ele>1035</ele>
        <time>2011-04-05T18:23:56Z</time>
      </trkpt>
      <trkpt lat="43.81666" lon="7.07253">
        <ele>967</ele>
        <time>2011-04-05T18:24:27Z</time>
      </trkpt>
      <trkpt lat="43.81634" lon="7.07332">
        <ele>957</ele>
        <time>2011-04-05T18:24:35Z</time>
      </trkpt>
      <trkpt lat="43.81622" lon="7.07499">
        <ele>949</ele>
        <time>2011-04-05T18:24:52Z</time>
      </trkpt>
      <trkpt lat="43.81622" lon="7.07505">
        <ele>941</ele>
        <time>2011-04-05T18:25:28Z</time>
      </trkpt>
      <trkpt lat="43.81621" lon="7.07513">
        <ele>931</ele>
        <time>2011-04-05T18:26:26Z</time>
      </trkpt>
      <trkpt lat="43.81622" lon="7.07529">
        <ele>928</ele>
        <time>2011-04-05T18:27:48Z</time>
      </trkpt>
      <trkpt lat="43.81621" lon="7.07554">
        <ele>925</ele>
        <time>2011-04-05T18:28:09Z</time>
      </trkpt>
      <trkpt lat="43.81618" lon="7.07638">
        <ele>926</ele>
        <time>2011-04-05T18:28:21Z</time>
      </trkpt>
      <trkpt lat="43.81623" lon="7.07673">
        <ele>925</ele>
        <time>2011-04-05T18:28:26Z</time>
      </trkpt>
      <trkpt lat="43.81632" lon="7.07688">
        <ele>918</ele>
        <time>2011-04-05T18:28:59Z</time>
      </trkpt>
      <trkpt lat="43.81623" lon="7.07722">
        <ele>910</ele>
        <time>2011-04-05T18:29:39Z</time>
      </trkpt>
      <trkpt lat="43.81618" lon="7.07752">
        <ele>914</ele>
        <time>2011-04-05T18:29:44Z</time>
      </trkpt>
      <trkpt lat="43.8159" lon="7.07888">
        <ele>912</ele>
        <time>2011-04-05T18:29:57Z</time>
      </trkpt>
      <trkpt lat="43.81554" lon="7.07966">
        <ele>906</ele>
        <time>2011-04-05T18:30:06Z</time>
      </trkpt>
      <trkpt lat="43.81541" lon="7.07978">
        <ele>896</ele>
        <time>2011-04-05T18:31:22Z</time>
      </trkpt>
      <trkpt lat="43.81544" lon="7.07971">
        <ele>898</ele>
        <time>2011-04-05T18:50:29Z</time>
      </trkpt>
      <trkpt lat="43.81552" lon="7.07959">
        <ele>899</ele>
        <time>2011-04-05T18:50:36Z</time>
      </trkpt>
      <trkpt lat="43.81556" lon="7.07947">
        <ele>898</ele>
        <time>2011-04-05T18:50:41Z</time>
      </trkpt>
      <trkpt lat="43.81533" lon="7.07943">
        <ele>896</ele>
        <time>2011-04-05T18:51:02Z</time>
      </trkpt>
      <trkpt lat="43.81494" lon="7.07961">
        <ele>893</ele>
        <time>2011-04-05T18:51:12Z</time>
      </trkpt>
      <trkpt lat="43.81482" lon="7.07976">
        <ele>894</ele>
        <time>2011-04-05T18:51:15Z</time>
      </trkpt>
      <trkpt lat="43.81454" lon="7.08036">
        <ele>891</ele>
        <time>2011-04-05T18:51:25Z</time>
      </trkpt>
      <trkpt lat="43.81431" lon="7.08134">
        <ele>878</ele>
        <time>2011-04-05T18:51:44Z</time>
      </trkpt>
      <trkpt lat="43.814" lon="7.0812">
        <ele>872</ele>
        <time>2011-04-05T18:51:57Z</time>
      </trkpt>
      <trkpt lat="43.81394" lon="7.08099">
        <ele>870</ele>
        <time>2011-04-05T18:52:01Z</time>
      </trkpt>
      <trkpt lat="43.81379" lon="7.08039">
        <ele>865</ele>
        <time>2011-04-05T18:52:11Z</time>
      </trkpt>
      <trkpt lat="43.81375" lon="7.08017">
        <ele>865</ele>
        <time>2011-04-05T18:52:15Z</time>
      </trkpt>
      <trkpt lat="43.81372" lon="7.07978">
        <ele>859</ele>
        <time>2011-04-05T18:52:22Z</time>
      </trkpt>
      <trkpt lat="43.8136" lon="7.08008">
        <ele>853</ele>
        <time>2011-04-05T18:52:35Z</time>
      </trkpt>
      <trkpt lat="43.81339" lon="7.08">
        <ele>842</ele>
        <time>2011-04-05T18:52:48Z</time>
      </trkpt>
      <trkpt lat="43.8133" lon="7.07986">
        <ele>830</ele>
        <time>2011-04-05T18:53:03Z</time>
      </trkpt>
      <trkpt lat="43.81309" lon="7.08131">
        <ele>799</ele>
        <time>2011-04-05T18:53:36Z</time>
      </trkpt>
      <trkpt lat="43.81282" lon="7.08215">
        <ele>787</ele>
        <time>2011-04-05T18:54:00Z</time>
      </trkpt>
      <trkpt lat="43.81254" lon="7.08246">
        <ele>780</ele>
        <time>2011-04-05T18:54:13Z</time>
      </trkpt>
      <trkpt lat="43.81248" lon="7.08233">
        <ele>772</ele>
        <time>2011-04-05T18:54:37Z</time>
      </trkpt>
      <trkpt lat="43.81234" lon="7.08238">
        <ele>770</ele>
        <time>2011-04-05T18:54:59Z</time>
      </trkpt>
      <trkpt lat="43.81226" lon="7.08285">
        <ele>770</ele>
        <time>2011-04-05T18:55:07Z</time>
      </trkpt>
      <trkpt lat="43.8122" lon="7.08306">
        <ele>769</ele>
        <time>2011-04-05T18:55:12Z</time>
      </trkpt>
      <trkpt lat="43.81207" lon="7.08322">
        <ele>767</ele>
        <time>2011-04-05T18:55:23Z</time>
      </trkpt>
      <trkpt lat="43.81199" lon="7.08346">
        <ele>758</ele>
        <time>2011-04-05T18:55:43Z</time>
      </trkpt>
      <trkpt lat="43.81186" lon="7.08423">
        <ele>754</ele>
        <time>2011-04-05T18:55:56Z</time>
      </trkpt>
      <trkpt lat="43.81172" lon="7.08496">
        <ele>754</ele>
        <time>2011-04-05T18:56:09Z</time>
      </trkpt>
      <trkpt lat="43.81163" lon="7.08516">
        <ele>744</ele>
        <time>2011-04-05T18:56:58Z</time>
      </trkpt>
      <trkpt lat="43.8118" lon="7.08537">
        <ele>737</ele>
        <time>2011-04-05T18:57:21Z</time>
      </trkpt>
      <trkpt lat="43.81194" lon="7.08565">
        <ele>743</ele>
        <time>2011-04-05T18:57:41Z</time>
      </trkpt>
      <trkpt lat="43.81197" lon="7.08596">
        <ele>743</ele>
        <time>2011-04-05T18:57:50Z</time>
      </trkpt>
      <trkpt lat="43.812" lon="7.08669">
        <ele>746</ele>
        <time>2011-04-05T18:58:29Z</time>
      </trkpt>
      <trkpt lat="43.8119" lon="7.08664">
        <ele>744</ele>
        <time>2011-04-05T18:59:42Z</time>
      </trkpt>
      <trkpt lat="43.81195" lon="7.08639">
        <ele>746</ele>
        <time>2011-04-05T19:00:26Z</time>
      </trkpt>
      <trkpt lat="43.81183" lon="7.08598">
        <ele>753</ele>
        <time>2011-04-05T19:00:43Z</time>
      </trkpt>
      <trkpt lat="43.81172" lon="7.08577">
        <ele>755</ele>
        <time>2011-04-05T19:00:48Z</time>
      </trkpt>
      <trkpt lat="43.81164" lon="7.08556">
        <ele>755</ele>
        <time>2011-04-05T19:00:54Z</time>
      </trkpt>
      <trkpt lat="43.81156" lon="7.08537">
        <ele>756</ele>
        <time>2011-04-05T19:01:03Z</time>
      </trkpt>
      <trkpt lat="43.81161" lon="7.08537">
        <ele>755</ele>
        <time>2011-04-05T19:01:41Z</time>
      </trkpt>
      <trkpt lat="43.8116" lon="7.08602">
        <ele>762</ele>
        <time>2011-04-05T19:02:05Z</time>
      </trkpt>
      <trkpt lat="43.81154" lon="7.08623">
        <ele>762</ele>
        <time>2011-04-05T19:02:13Z</time>
      </trkpt>
      <trkpt lat="43.81145" lon="7.08657">
        <ele>760</ele>
        <time>2011-04-05T19:02:25Z</time>
      </trkpt>
      <trkpt lat="43.81138" lon="7.08702">
        <ele>753</ele>
        <time>2011-04-05T19:02:46Z</time>
      </trkpt>
      <trkpt lat="43.81132" lon="7.08725">
        <ele>753</ele>
        <time>2011-04-05T19:02:54Z</time>
      </trkpt>
      <trkpt lat="43.81121" lon="7.08742">
        <ele>757</ele>
        <time>2011-04-05T19:03:01Z</time>
      </trkpt>
      <trkpt lat="43.81105" lon="7.08754">
        <ele>761</ele>
        <time>2011-04-05T19:03:15Z</time>
      </trkpt>
      <trkpt lat="43.81101" lon="7.08776">
        <ele>764</ele>
        <time>2011-04-05T19:03:36Z</time>
      </trkpt>
      <trkpt lat="43.81093" lon="7.08798">
        <ele>764</ele>
        <time>2011-04-05T19:03:54Z</time>
      </trkpt>
      <trkpt lat="43.81081" lon="7.08797">
        <ele>762</ele>
        <time>2011-04-05T19:04:05Z</time>
      </trkpt>
      <trkpt lat="43.81075" lon="7.08806">
        <ele>761</ele>
        <time>2011-04-05T19:04:22Z</time>
      </trkpt>
      <trkpt lat="43.8107" lon="7.08822">
        <ele>762</ele>
        <time>2011-04-05T19:04:40Z</time>
      </trkpt>
      <trkpt lat="43.8106" lon="7.08844">
        <ele>760</ele>
        <time>2011-04-05T19:05:08Z</time>
      </trkpt>
      <trkpt lat="43.81058" lon="7.08869">
        <ele>762</ele>
        <time>2011-04-05T19:05:22Z</time>
      </trkpt>
      <trkpt lat="43.81053" lon="7.08882">
        <ele>766</ele>
        <time>2011-04-05T19:05:37Z</time>
      </trkpt>
      <trkpt lat="43.81055" lon="7.08894">
        <ele>769</ele>
        <time>2011-04-05T19:05:50Z</time>
      </trkpt>
      <trkpt lat="43.81071" lon="7.0895">
        <ele>779</ele>
        <time>2011-04-05T19:06:21Z</time>
      </trkpt>
      <trkpt lat="43.81074" lon="7.08974">
        <ele>780</ele>
        <time>2011-04-05T19:06:33Z</time>
      </trkpt>
      <trkpt lat="43.81074" lon="7.09029">
        <ele>787</ele>
        <time>2011-04-05T19:07:08Z</time>
      </trkpt>
      <trkpt lat="43.81077" lon="7.09044">
        <ele>788</ele>
        <time>2011-04-05T19:07:18Z</time>
      </trkpt>
      <trkpt lat="43.81088" lon="7.09086">
        <ele>794</ele>
        <time>2011-04-05T19:07:49Z</time>
      </trkpt>
      <trkpt lat="43.8109" lon="7.09098">
        <ele>795</ele>
        <time>2011-04-05T19:08:00Z</time>
      </trkpt>
      <trkpt lat="43.81085" lon="7.09114">
        <ele>795</ele>
        <time>2011-04-05T19:08:08Z</time>
      </trkpt>
      <trkpt lat="43.81073" lon="7.09129">
        <ele>796</ele>
        <time>2011-04-05T19:08:17Z</time>
      </trkpt>
      <trkpt lat="43.81054" lon="7.09134">
        <ele>803</ele>
        <time>2011-04-05T19:08:49Z</time>
      </trkpt>
      <trkpt lat="43.81041" lon="7.09146">
        <ele>806</ele>
        <time>2011-04-05T19:08:58Z</time>
      </trkpt>
      <trkpt lat="43.81031" lon="7.09165">
        <ele>810</ele>
        <time>2011-04-05T19:09:04Z</time>
      </trkpt>
      <trkpt lat="43.81026" lon="7.09176">
        <ele>810</ele>
        <time>2011-04-05T19:09:08Z</time>
      </trkpt>
      <trkpt lat="43.81022" lon="7.09198">
        <ele>813</ele>
        <time>2011-04-05T19:09:17Z</time>
      </trkpt>
      <trkpt lat="43.81024" lon="7.09221">
        <ele>810</ele>
        <time>2011-04-05T19:09:32Z</time>
      </trkpt>
      <trkpt lat="43.81016" lon="7.0924">
        <ele>814</ele>
        <time>2011-04-05T19:09:41Z</time>
      </trkpt>
      <trkpt lat="43.81007" lon="7.09254">
        <ele>815</ele>
        <time>2011-04-05T19:09:47Z</time>
      </trkpt>
      <trkpt lat="43.80987" lon="7.09344">
        <ele>815</ele>
        <time>2011-04-05T19:10:14Z</time>
      </trkpt>
      <trkpt lat="43.80985" lon="7.09357">
        <ele>816</ele>
        <time>2011-04-05T19:10:18Z</time>
      </trkpt>
      <trkpt lat="43.80982" lon="7.09381">
        <ele>816</ele>
        <time>2011-04-05T19:10:23Z</time>
      </trkpt>
      <trkpt lat="43.80977" lon="7.09408">
        <ele>818</ele>
        <time>2011-04-05T19:10:27Z</time>
      </trkpt>
      <trkpt lat="43.80966" lon="7.09424">
        <ele>817</ele>
        <time>2011-04-05T19:10:34Z</time>
      </trkpt>
      <trkpt lat="43.80914" lon="7.09476">
        <ele>830</ele>
        <time>2011-04-05T19:11:08Z</time>
      </trkpt>
      <trkpt lat="43.80905" lon="7.0949">
        <ele>832</ele>
        <time>2011-04-05T19:11:15Z</time>
      </trkpt>
      <trkpt lat="43.80896" lon="7.09509">
        <ele>832</ele>
        <time>2011-04-05T19:11:26Z</time>
      </trkpt>
      <trkpt lat="43.80884" lon="7.09537">
        <ele>826</ele>
        <time>2011-04-05T19:11:48Z</time>
      </trkpt>
      <trkpt lat="43.80887" lon="7.09564">
        <ele>824</ele>
        <time>2011-04-05T19:12:15Z</time>
      </trkpt>
      <trkpt lat="43.80892" lon="7.0958">
        <ele>827</ele>
        <time>2011-04-05T19:12:24Z</time>
      </trkpt>
      <trkpt lat="43.80896" lon="7.09595">
        <ele>826</ele>
        <time>2011-04-05T19:12:34Z</time>
      </trkpt>
      <trkpt lat="43.809" lon="7.09655">
        <ele>835</ele>
        <time>2011-04-05T19:13:30Z</time>
      </trkpt>
      <trkpt lat="43.80896" lon="7.09665">
        <ele>837</ele>
        <time>2011-04-05T19:13:38Z</time>
      </trkpt>
      <trkpt lat="43.8088" lon="7.09678">
        <ele>845</ele>
        <time>2011-04-05T19:13:58Z</time>
      </trkpt>
      <trkpt lat="43.8086" lon="7.09671">
        <ele>850</ele>
        <time>2011-04-05T19:14:15Z</time>
      </trkpt>
      <trkpt lat="43.80864" lon="7.09633">
        <ele>849</ele>
        <time>2011-04-05T19:15:43Z</time>
      </trkpt>
      <trkpt lat="43.80861" lon="7.0961">
        <ele>849</ele>
        <time>2011-04-05T19:15:48Z</time>
      </trkpt>
      <trkpt lat="43.80851" lon="7.09592">
        <ele>848</ele>
        <time>2011-04-05T19:15:56Z</time>
      </trkpt>
      <trkpt lat="43.80837" lon="7.09578">
        <ele>849</ele>
        <time>2011-04-05T19:16:05Z</time>
      </trkpt>
      <trkpt lat="43.80819" lon="7.09588">
        <ele>858</ele>
        <time>2011-04-05T19:16:38Z</time>
      </trkpt>
      <trkpt lat="43.80809" lon="7.09571">
        <ele>856</ele>
        <time>2011-04-05T19:17:08Z</time>
      </trkpt>
      <trkpt lat="43.80785" lon="7.09573">
        <ele>859</ele>
        <time>2011-04-05T19:17:25Z</time>
      </trkpt>
      <trkpt lat="43.80769" lon="7.0957">
        <ele>859</ele>
        <time>2011-04-05T19:17:31Z</time>
      </trkpt>
      <trkpt lat="43.80719" lon="7.09561">
        <ele>863</ele>
        <time>2011-04-05T19:17:48Z</time>
      </trkpt>
      <trkpt lat="43.80704" lon="7.0955">
        <ele>863</ele>
        <time>2011-04-05T19:17:54Z</time>
      </trkpt>
      <trkpt lat="43.8069" lon="7.0954">
        <ele>862</ele>
        <time>2011-04-05T19:17:59Z</time>
      </trkpt>
      <trkpt lat="43.80661" lon="7.09521">
        <ele>862</ele>
        <time>2011-04-05T19:18:10Z</time>
      </trkpt>
      <trkpt lat="43.80647" lon="7.09511">
        <ele>861</ele>
        <time>2011-04-05T19:18:16Z</time>
      </trkpt>
      <trkpt lat="43.80636" lon="7.09488">
        <ele>861</ele>
        <time>2011-04-05T19:18:25Z</time>
      </trkpt>
      <trkpt lat="43.80623" lon="7.09473">
        <ele>863</ele>
        <time>2011-04-05T19:18:33Z</time>
      </trkpt>
      <trkpt lat="43.80603" lon="7.09477">
        <ele>864</ele>
        <time>2011-04-05T19:18:43Z</time>
      </trkpt>
      <trkpt lat="43.80541" lon="7.09505">
        <ele>874</ele>
        <time>2011-04-05T19:19:17Z</time>
      </trkpt>
      <trkpt lat="43.80525" lon="7.09507">
        <ele>877</ele>
        <time>2011-04-05T19:19:25Z</time>
      </trkpt>
      <trkpt lat="43.80485" lon="7.09524">
        <ele>877</ele>
        <time>2011-04-05T19:19:44Z</time>
      </trkpt>
      <trkpt lat="43.80452" lon="7.09539">
        <ele>891</ele>
        <time>2011-04-05T19:20:07Z</time>
      </trkpt>
      <trkpt lat="43.80442" lon="7.09528">
        <ele>891</ele>
        <time>2011-04-05T19:20:42Z</time>
      </trkpt>
      <trkpt lat="43.80424" lon="7.09523">
        <ele>897</ele>
        <time>2011-04-05T19:21:13Z</time>
      </trkpt>
      <trkpt lat="43.80408" lon="7.09529">
        <ele>896</ele>
        <time>2011-04-05T19:21:16Z</time>
      </trkpt>
      <trkpt lat="43.80395" lon="7.09543">
        <ele>896</ele>
        <time>2011-04-05T19:21:19Z</time>
      </trkpt>
      <trkpt lat="43.80381" lon="7.09562">
        <ele>897</ele>
        <time>2011-04-05T19:21:23Z</time>
      </trkpt>
      <trkpt lat="43.8035" lon="7.09602">
        <ele>896</ele>
        <time>2011-04-05T19:21:32Z</time>
      </trkpt>
      <trkpt lat="43.80329" lon="7.09601">
        <ele>892</ele>
        <time>2011-04-05T19:21:39Z</time>
      </trkpt>
      <trkpt lat="43.80323" lon="7.09578">
        <ele>888</ele>
        <time>2011-04-05T19:21:43Z</time>
      </trkpt>
      <trkpt lat="43.80313" lon="7.09552">
        <ele>883</ele>
        <time>2011-04-05T19:21:47Z</time>
      </trkpt>
      <trkpt lat="43.8027" lon="7.09515">
        <ele>873</ele>
        <time>2011-04-05T19:21:57Z</time>
      </trkpt>
      <trkpt lat="43.80253" lon="7.09508">
        <ele>870</ele>
        <time>2011-04-05T19:22:01Z</time>
      </trkpt>
      <trkpt lat="43.80231" lon="7.09478">
        <ele>863</ele>
        <time>2011-04-05T19:22:08Z</time>
      </trkpt>
      <trkpt lat="43.80217" lon="7.09443">
        <ele>857</ele>
        <time>2011-04-05T19:22:17Z</time>
      </trkpt>
      <trkpt lat="43.80204" lon="7.0944">
        <ele>854</ele>
        <time>2011-04-05T19:22:22Z</time>
      </trkpt>
      <trkpt lat="43.80126" lon="7.09428">
        <ele>849</ele>
        <time>2011-04-05T19:22:41Z</time>
      </trkpt>
      <trkpt lat="43.80127" lon="7.09411">
        <ele>847</ele>
        <time>2011-04-05T19:22:46Z</time>
      </trkpt>
      <trkpt lat="43.80129" lon="7.09388">
        <ele>847</ele>
        <time>2011-04-05T19:22:53Z</time>
      </trkpt>
      <trkpt lat="43.80121" lon="7.09371">
        <ele>846</ele>
        <time>2011-04-05T19:22:59Z</time>
      </trkpt>
      <trkpt lat="43.80105" lon="7.09376">
        <ele>845</ele>
        <time>2011-04-05T19:23:06Z</time>
      </trkpt>
      <trkpt lat="43.80098" lon="7.09393">
        <ele>845</ele>
        <time>2011-04-05T19:23:11Z</time>
      </trkpt>
      <trkpt lat="43.80084" lon="7.09426">
        <ele>845</ele>
        <time>2011-04-05T19:23:21Z</time>
      </trkpt>
      <trkpt lat="43.80078" lon="7.09447">
        <ele>846</ele>
        <time>2011-04-05T19:23:27Z</time>
      </trkpt>
      <trkpt lat="43.80068" lon="7.0945">
        <ele>847</ele>
        <time>2011-04-05T19:23:32Z</time>
      </trkpt>
      <trkpt lat="43.80071" lon="7.09425">
        <ele>848</ele>
        <time>2011-04-05T19:23:40Z</time>
      </trkpt>
      <trkpt lat="43.80077" lon="7.09378">
        <ele>848</ele>
        <time>2011-04-05T19:23:52Z</time>
      </trkpt>
      <trkpt lat="43.80077" lon="7.09361">
        <ele>849</ele>
        <time>2011-04-05T19:23:57Z</time>
      </trkpt>
      <trkpt lat="43.80064" lon="7.09274">
        <ele>849</ele>
        <time>2011-04-05T19:24:20Z</time>
      </trkpt>
      <trkpt lat="43.80043" lon="7.09164">
        <ele>864</ele>
        <time>2011-04-05T19:24:54Z</time>
      </trkpt>
      <trkpt lat="43.80027" lon="7.09096">
        <ele>870</ele>
        <time>2011-04-05T19:25:14Z</time>
      </trkpt>
      <trkpt lat="43.80019" lon="7.09075">
        <ele>870</ele>
        <time>2011-04-05T19:25:19Z</time>
      </trkpt>
      <trkpt lat="43.79989" lon="7.08985">
        <ele>866</ele>
        <time>2011-04-05T19:25:38Z</time>
      </trkpt>
      <trkpt lat="43.79991" lon="7.08972">
        <ele>865</ele>
        <time>2011-04-05T19:25:41Z</time>
      </trkpt>
      <trkpt lat="43.79996" lon="7.08959">
        <ele>865</ele>
        <time>2011-04-05T19:25:44Z</time>
      </trkpt>
      <trkpt lat="43.80005" lon="7.08947">
        <ele>866</ele>
        <time>2011-04-05T19:25:48Z</time>
      </trkpt>
      <trkpt lat="43.80013" lon="7.08942">
        <ele>866</ele>
        <time>2011-04-05T19:25:51Z</time>
      </trkpt>
      <trkpt lat="43.80025" lon="7.08943">
        <ele>867</ele>
        <time>2011-04-05T19:25:55Z</time>
      </trkpt>
      <trkpt lat="43.80033" lon="7.08949">
        <ele>868</ele>
        <time>2011-04-05T19:25:58Z</time>
      </trkpt>
      <trkpt lat="43.80067" lon="7.09001">
        <ele>872</ele>
        <time>2011-04-05T19:26:13Z</time>
      </trkpt>
      <trkpt lat="43.80089" lon="7.0904">
        <ele>872</ele>
        <time>2011-04-05T19:26:23Z</time>
      </trkpt>
      <trkpt lat="43.80116" lon="7.09073">
        <ele>876</ele>
        <time>2011-04-05T19:26:33Z</time>
      </trkpt>
      <trkpt lat="43.80124" lon="7.09081">
        <ele>876</ele>
        <time>2011-04-05T19:26:36Z</time>
      </trkpt>
      <trkpt lat="43.80137" lon="7.09089">
        <ele>878</ele>
        <time>2011-04-05T19:26:40Z</time>
      </trkpt>
      <trkpt lat="43.80167" lon="7.09094">
        <ele>878</ele>
        <time>2011-04-05T19:26:49Z</time>
      </trkpt>
      <trkpt lat="43.80185" lon="7.09091">
        <ele>879</ele>
        <time>2011-04-05T19:26:54Z</time>
      </trkpt>
      <trkpt lat="43.80225" lon="7.09071">
        <ele>879</ele>
        <time>2011-04-05T19:27:06Z</time>
      </trkpt>
      <trkpt lat="43.80212" lon="7.09058">
        <ele>878</ele>
        <time>2011-04-05T19:27:15Z</time>
      </trkpt>
      <trkpt lat="43.80201" lon="7.09067">
        <ele>877</ele>
        <time>2011-04-05T19:27:18Z</time>
      </trkpt>
      <trkpt lat="43.80157" lon="7.09074">
        <ele>877</ele>
        <time>2011-04-05T19:27:31Z</time>
      </trkpt>
      <trkpt lat="43.80148" lon="7.0907">
        <ele>878</ele>
        <time>2011-04-05T19:27:34Z</time>
      </trkpt>
      <trkpt lat="43.8013" lon="7.09058">
        <ele>878</ele>
        <time>2011-04-05T19:27:40Z</time>
      </trkpt>
      <trkpt lat="43.80123" lon="7.0905">
        <ele>879</ele>
        <time>2011-04-05T19:27:43Z</time>
      </trkpt>
      <trkpt lat="43.80101" lon="7.09011">
        <ele>879</ele>
        <time>2011-04-05T19:27:54Z</time>
      </trkpt>
      <trkpt lat="43.80098" lon="7.08997">
        <ele>880</ele>
        <time>2011-04-05T19:27:57Z</time>
      </trkpt>
      <trkpt lat="43.80094" lon="7.08984">
        <ele>880</ele>
        <time>2011-04-05T19:28:00Z</time>
      </trkpt>
      <trkpt lat="43.80088" lon="7.08963">
        <ele>882</ele>
        <time>2011-04-05T19:28:05Z</time>
      </trkpt>
      <trkpt lat="43.80084" lon="7.0895">
        <ele>882</ele>
        <time>2011-04-05T19:28:08Z</time>
      </trkpt>
      <trkpt lat="43.80076" lon="7.08915">
        <ele>884</ele>
        <time>2011-04-05T19:28:16Z</time>
      </trkpt>
      <trkpt lat="43.80074" lon="7.08901">
        <ele>884</ele>
        <time>2011-04-05T19:28:19Z</time>
      </trkpt>
      <trkpt lat="43.80069" lon="7.08864">
        <ele>886</ele>
        <time>2011-04-05T19:28:27Z</time>
      </trkpt>
      <trkpt lat="43.80067" lon="7.0885">
        <ele>886</ele>
        <time>2011-04-05T19:28:30Z</time>
      </trkpt>
      <trkpt lat="43.80066" lon="7.08836">
        <ele>887</ele>
        <time>2011-04-05T19:28:33Z</time>
      </trkpt>
      <trkpt lat="43.80067" lon="7.08806">
        <ele>887</ele>
        <time>2011-04-05T19:28:39Z</time>
      </trkpt>
      <trkpt lat="43.80064" lon="7.08764">
        <ele>889</ele>
        <time>2011-04-05T19:28:48Z</time>
      </trkpt>
      <trkpt lat="43.80053" lon="7.08746">
        <ele>889</ele>
        <time>2011-04-05T19:28:53Z</time>
      </trkpt>
      <trkpt lat="43.80028" lon="7.08718">
        <ele>892</ele>
        <time>2011-04-05T19:29:03Z</time>
      </trkpt>
      <trkpt lat="43.80021" lon="7.08696">
        <ele>893</ele>
        <time>2011-04-05T19:29:08Z</time>
      </trkpt>
      <trkpt lat="43.80019" lon="7.08672">
        <ele>894</ele>
        <time>2011-04-05T19:29:13Z</time>
      </trkpt>
      <trkpt lat="43.80008" lon="7.08627">
        <ele>894</ele>
        <time>2011-04-05T19:29:23Z</time>
      </trkpt>
      <trkpt lat="43.79979" lon="7.08594">
        <ele>897</ele>
        <time>2011-04-05T19:29:35Z</time>
      </trkpt>
      <trkpt lat="43.79973" lon="7.08584">
        <ele>897</ele>
        <time>2011-04-05T19:29:38Z</time>
      </trkpt>
      <trkpt lat="43.79964" lon="7.08558">
        <ele>899</ele>
        <time>2011-04-05T19:29:44Z</time>
      </trkpt>
      <trkpt lat="43.79958" lon="7.08546">
        <ele>899</ele>
        <time>2011-04-05T19:29:47Z</time>
      </trkpt>
      <trkpt lat="43.7994" lon="7.08525">
        <ele>902</ele>
        <time>2011-04-05T19:29:54Z</time>
      </trkpt>
      <trkpt lat="43.79926" lon="7.0852">
        <ele>902</ele>
        <time>2011-04-05T19:29:58Z</time>
      </trkpt>
      <trkpt lat="43.79812" lon="7.08468">
        <ele>917</ele>
        <time>2011-04-05T19:30:31Z</time>
      </trkpt>
      <trkpt lat="43.79785" lon="7.08443">
        <ele>919</ele>
        <time>2011-04-05T19:30:39Z</time>
      </trkpt>
      <trkpt lat="43.79763" lon="7.08399">
        <ele>919</ele>
        <time>2011-04-05T19:30:47Z</time>
      </trkpt>
      <trkpt lat="43.79761" lon="7.08373">
        <ele>919</ele>
        <time>2011-04-05T19:30:51Z</time>
      </trkpt>
      <trkpt lat="43.79767" lon="7.08355">
        <ele>919</ele>
        <time>2011-04-05T19:30:54Z</time>
      </trkpt>
      <trkpt lat="43.79775" lon="7.08334">
        <ele>919</ele>
        <time>2011-04-05T19:30:58Z</time>
      </trkpt>
      <trkpt lat="43.79793" lon="7.08292">
        <ele>921</ele>
        <time>2011-04-05T19:31:06Z</time>
      </trkpt>
      <trkpt lat="43.79812" lon="7.08276">
        <ele>922</ele>
        <time>2011-04-05T19:31:11Z</time>
      </trkpt>
      <trkpt lat="43.7985" lon="7.08248">
        <ele>922</ele>
        <time>2011-04-05T19:31:20Z</time>
      </trkpt>
      <trkpt lat="43.79854" lon="7.08216">
        <ele>923</ele>
        <time>2011-04-05T19:31:25Z</time>
      </trkpt>
      <trkpt lat="43.79853" lon="7.08203">
        <ele>923</ele>
        <time>2011-04-05T19:31:27Z</time>
      </trkpt>
      <trkpt lat="43.79849" lon="7.08178">
        <ele>924</ele>
        <time>2011-04-05T19:31:31Z</time>
      </trkpt>
      <trkpt lat="43.79839" lon="7.0813">
        <ele>924</ele>
        <time>2011-04-05T19:31:39Z</time>
      </trkpt>
      <trkpt lat="43.79832" lon="7.08106">
        <ele>925</ele>
        <time>2011-04-05T19:31:43Z</time>
      </trkpt>
      <trkpt lat="43.79826" lon="7.0808">
        <ele>925</ele>
        <time>2011-04-05T19:31:47Z</time>
      </trkpt>
      <trkpt lat="43.79822" lon="7.08068">
        <ele>924</ele>
        <time>2011-04-05T19:31:49Z</time>
      </trkpt>
      <trkpt lat="43.79815" lon="7.08039">
        <ele>924</ele>
        <time>2011-04-05T19:31:54Z</time>
      </trkpt>
      <trkpt lat="43.79809" lon="7.08016">
        <ele>925</ele>
        <time>2011-04-05T19:31:58Z</time>
      </trkpt>
      <trkpt lat="43.79793" lon="7.0795">
        <ele>925</ele>
        <time>2011-04-05T19:32:10Z</time>
      </trkpt>
      <trkpt lat="43.79788" lon="7.07927">
        <ele>924</ele>
        <time>2011-04-05T19:32:14Z</time>
      </trkpt>
      <trkpt lat="43.79784" lon="7.07911">
        <ele>924</ele>
        <time>2011-04-05T19:32:17Z</time>
      </trkpt>
      <trkpt lat="43.79779" lon="7.07888">
        <ele>923</ele>
        <time>2011-04-05T19:32:21Z</time>
      </trkpt>
      <trkpt lat="43.79775" lon="7.07872">
        <ele>923</ele>
        <time>2011-04-05T19:32:24Z</time>
      </trkpt>
      <trkpt lat="43.79771" lon="7.07856">
        <ele>924</ele>
        <time>2011-04-05T19:32:27Z</time>
      </trkpt>
      <trkpt lat="43.79762" lon="7.07825">
        <ele>924</ele>
        <time>2011-04-05T19:32:33Z</time>
      </trkpt>
      <trkpt lat="43.79736" lon="7.07646">
        <ele>929</ele>
        <time>2011-04-05T19:33:06Z</time>
      </trkpt>
      <trkpt lat="43.79722" lon="7.07605">
        <ele>931</ele>
        <time>2011-04-05T19:33:14Z</time>
      </trkpt>
      <trkpt lat="43.79711" lon="7.07587">
        <ele>931</ele>
        <time>2011-04-05T19:33:18Z</time>
      </trkpt>
      <trkpt lat="43.79681" lon="7.07528">
        <ele>934</ele>
        <time>2011-04-05T19:33:30Z</time>
      </trkpt>
      <trkpt lat="43.79674" lon="7.07506">
        <ele>934</ele>
        <time>2011-04-05T19:33:34Z</time>
      </trkpt>
      <trkpt lat="43.7967" lon="7.07495">
        <ele>935</ele>
        <time>2011-04-05T19:33:36Z</time>
      </trkpt>
      <trkpt lat="43.79667" lon="7.07483">
        <ele>935</ele>
        <time>2011-04-05T19:33:38Z</time>
      </trkpt>
      <trkpt lat="43.79653" lon="7.07439">
        <ele>937</ele>
        <time>2011-04-05T19:33:46Z</time>
      </trkpt>
      <trkpt lat="43.79647" lon="7.07417">
        <ele>937</ele>
        <time>2011-04-05T19:33:50Z</time>
      </trkpt>
      <trkpt lat="43.79618" lon="7.07357">
        <ele>942</ele>
        <time>2011-04-05T19:34:04Z</time>
      </trkpt>
      <trkpt lat="43.79534" lon="7.07189">
        <ele>947</ele>
        <time>2011-04-05T19:34:36Z</time>
      </trkpt>
      <trkpt lat="43.79447" lon="7.07044">
        <ele>956</ele>
        <time>2011-04-05T19:35:07Z</time>
      </trkpt>
      <trkpt lat="43.79425" lon="7.06904">
        <ele>956</ele>
        <time>2011-04-05T19:35:30Z</time>
      </trkpt>
      <trkpt lat="43.79422" lon="7.06855">
        <ele>956</ele>
        <time>2011-04-05T19:35:38Z</time>
      </trkpt>
      <trkpt lat="43.79414" lon="7.06808">
        <ele>958</ele>
        <time>2011-04-05T19:35:46Z</time>
      </trkpt>
      <trkpt lat="43.79408" lon="7.06783">
        <ele>958</ele>
        <time>2011-04-05T19:35:50Z</time>
      </trkpt>
      <trkpt lat="43.79393" lon="7.06734">
        <ele>960</ele>
        <time>2011-04-05T19:35:58Z</time>
      </trkpt>
      <trkpt lat="43.79332" lon="7.06539">
        <ele>963</ele>
        <time>2011-04-05T19:36:29Z</time>
      </trkpt>
      <trkpt lat="43.79328" lon="7.0651">
        <ele>964</ele>
        <time>2011-04-05T19:36:33Z</time>
      </trkpt>
      <trkpt lat="43.79327" lon="7.06455">
        <ele>964</ele>
        <time>2011-04-05T19:36:41Z</time>
      </trkpt>
      <trkpt lat="43.79326" lon="7.06325">
        <ele>970</ele>
        <time>2011-04-05T19:37:00Z</time>
      </trkpt>
      <trkpt lat="43.7932" lon="7.06299">
        <ele>970</ele>
        <time>2011-04-05T19:37:04Z</time>
      </trkpt>
      <trkpt lat="43.79309" lon="7.06275">
        <ele>971</ele>
        <time>2011-04-05T19:37:08Z</time>
      </trkpt>
      <trkpt lat="43.7928" lon="7.06229">
        <ele>975</ele>
        <time>2011-04-05T19:37:17Z</time>
      </trkpt>
      <trkpt lat="43.7927" lon="7.06211">
        <ele>975</ele>
        <time>2011-04-05T19:37:20Z</time>
      </trkpt>
      <trkpt lat="43.79262" lon="7.06192">
        <ele>976</ele>
        <time>2011-04-05T19:37:23Z</time>
      </trkpt>
      <trkpt lat="43.79254" lon="7.06171">
        <ele>976</ele>
        <time>2011-04-05T19:37:26Z</time>
      </trkpt>
      <trkpt lat="43.79247" lon="7.0615">
        <ele>977</ele>
        <time>2011-04-05T19:37:29Z</time>
      </trkpt>
      <trkpt lat="43.79231" lon="7.06103">
        <ele>977</ele>
        <time>2011-04-05T19:37:36Z</time>
      </trkpt>
      <trkpt lat="43.79223" lon="7.06076">
        <ele>978</ele>
        <time>2011-04-05T19:37:40Z</time>
      </trkpt>
      <trkpt lat="43.79225" lon="7.06031">
        <ele>979</ele>
        <time>2011-04-05T19:37:46Z</time>
      </trkpt>
      <trkpt lat="43.7923" lon="7.06014">
        <ele>980</ele>
        <time>2011-04-05T19:37:48Z</time>
      </trkpt>
      <trkpt lat="43.79237" lon="7.05987">
        <ele>980</ele>
        <time>2011-04-05T19:37:51Z</time>
      </trkpt>
      <trkpt lat="43.79241" lon="7.0596">
        <ele>979</ele>
        <time>2011-04-05T19:37:54Z</time>
      </trkpt>
      <trkpt lat="43.79242" lon="7.05931">
        <ele>979</ele>
        <time>2011-04-05T19:37:57Z</time>
      </trkpt>
      <trkpt lat="43.79243" lon="7.05901">
        <ele>978</ele>
        <time>2011-04-05T19:38:00Z</time>
      </trkpt>
      <trkpt lat="43.79244" lon="7.05871">
        <ele>979</ele>
        <time>2011-04-05T19:38:03Z</time>
      </trkpt>
      <trkpt lat="43.79247" lon="7.05841">
        <ele>978</ele>
        <time>2011-04-05T19:38:06Z</time>
      </trkpt>
      <trkpt lat="43.7925" lon="7.05811">
        <ele>979</ele>
        <time>2011-04-05T19:38:09Z</time>
      </trkpt>
      <trkpt lat="43.79253" lon="7.05788">
        <ele>978</ele>
        <time>2011-04-05T19:38:11Z</time>
      </trkpt>
      <trkpt lat="43.79254" lon="7.05765">
        <ele>979</ele>
        <time>2011-04-05T19:38:13Z</time>
      </trkpt>
      <trkpt lat="43.79255" lon="7.05743">
        <ele>978</ele>
        <time>2011-04-05T19:38:15Z</time>
      </trkpt>
      <trkpt lat="43.79236" lon="7.05394">
        <ele>977</ele>
        <time>2011-04-05T19:38:45Z</time>
      </trkpt>
      <trkpt lat="43.79213" lon="7.05024">
        <ele>971</ele>
        <time>2011-04-05T19:39:17Z</time>
      </trkpt>
      <trkpt lat="43.79208" lon="7.04898">
        <ele>971</ele>
        <time>2011-04-05T19:39:30Z</time>
      </trkpt>
      <trkpt lat="43.79225" lon="7.04848">
        <ele>971</ele>
        <time>2011-04-05T19:39:36Z</time>
      </trkpt>
      <trkpt lat="43.79237" lon="7.04824">
        <ele>970</ele>
        <time>2011-04-05T19:39:39Z</time>
      </trkpt>
      <trkpt lat="43.79266" lon="7.04745">
        <ele>970</ele>
        <time>2011-04-05T19:39:48Z</time>
      </trkpt>
      <trkpt lat="43.79259" lon="7.04576">
        <ele>969</ele>
        <time>2011-04-05T19:40:06Z</time>
      </trkpt>
      <trkpt lat="43.79257" lon="7.04562">
        <ele>970</ele>
        <time>2011-04-05T19:40:17Z</time>
      </trkpt>
      <trkpt lat="43.79248" lon="7.04565">
        <ele>969</ele>
        <time>2011-04-05T19:41:47Z</time>
      </trkpt>
    </trkseg>
  </trk>
</gpx>